createdAt,value
2023-01-31T00:00:16.442Z,69.28
2023-01-31T00:05:15.429Z,69.12
2023-01-31T00:10:14.958Z,69.31
2023-01-31T00:15:16.436Z,68.98
2023-01-31T00:20:19.321Z,68.87
2023-01-31T00:25:24.562Z,69.18
2023-01-31T00:30:28.542Z,69.32
2023-01-31T00:35:33.544Z,69.55
2023-01-31T00:40:33.110Z,69.48
2023-01-31T00:45:30.656Z,69.89
2023-01-31T00:50:31.353Z,69.69
2023-01-31T00:55:32.805Z,70.11
2023-01-31T01:00:30.758Z,69.98
2023-01-31T01:05:27.237Z,70.23
2023-01-31T01:10:24.961Z,70.54
2023-01-31T01:15:26.025Z,70.45
2023-01-31T01:20:23.604Z,70.34
2023-01-31T01:25:20.488Z,70.52
2023-01-31T01:30:21.651Z,70.78
2023-01-31T01:35:18.447Z,70.69
2023-01-31T01:40:16.408Z,71.06
2023-01-31T01:45:23.191Z,71.00
2023-01-31T01:50:30.205Z,71.27
2023-01-31T01:55:31.767Z,71.23
2023-01-31T02:00:30.000Z,71.49
2023-01-31T02:05:31.476Z,71.78
2023-01-31T02:10:36.522Z,71.90
2023-01-31T02:15:33.685Z,71.86
2023-01-31T02:20:52.988Z,72.28
2023-01-31T02:26:23.479Z,72.56
2023-01-31T02:31:57.274Z,72.67
2023-01-31T02:43:57.343Z,72.59
2023-01-31T02:49:42.612Z,72.90
2023-01-31T02:55:26.747Z,72.26
2023-01-31T03:00:24.088Z,72.40
2023-01-31T03:05:21.659Z,72.55
2023-01-31T03:10:30.626Z,72.86
2023-01-31T03:15:56.121Z,72.44
2023-01-31T03:21:01.430Z,72.34
2023-01-31T03:25:59.202Z,72.38
2023-01-31T03:31:18.942Z,72.65
2023-01-31T03:36:27.040Z,72.83
2023-01-31T03:41:39.671Z,72.99
2023-01-31T03:47:14.595Z,73.20
2023-01-31T03:52:12.396Z,72.79
2023-01-31T03:57:22.126Z,73.13
2023-01-31T04:02:19.740Z,73.19
2023-01-31T04:07:17.966Z,73.50
2023-01-31T04:12:15.143Z,73.40
2023-01-31T04:17:12.017Z,73.37
2023-01-31T04:22:13.704Z,73.52
2023-01-31T04:27:10.311Z,73.55
2023-01-31T04:32:07.075Z,73.52
2023-01-31T04:37:03.726Z,73.46
2023-01-31T04:42:00.717Z,73.53
2023-01-31T04:46:57.148Z,73.49
2023-01-31T04:51:53.661Z,73.50
2023-01-31T05:26:38.505Z,74.25
2023-01-31T05:32:45.867Z,74.49
2023-01-31T05:44:56.004Z,74.48
2023-01-31T05:49:53.014Z,74.39
2023-01-31T05:54:49.548Z,74.44
2023-01-31T05:59:48.680Z,74.15
2023-01-31T06:05:11.186Z,74.17
2023-01-31T06:15:55.485Z,74.03
2023-01-31T06:20:54.007Z,74.55
2023-01-31T06:25:52.093Z,74.25
2023-01-31T06:30:56.762Z,74.47
2023-01-31T06:35:53.442Z,74.28
2023-01-31T06:41:02.438Z,74.29
2023-01-31T06:46:06.639Z,74.15
2023-01-31T06:51:03.303Z,74.58
2023-01-31T06:55:59.812Z,74.36
2023-01-31T07:00:58.771Z,74.50
2023-01-31T07:05:56.413Z,74.49
2023-01-31T07:10:55.486Z,74.06
2023-01-31T07:15:57.510Z,74.23
2023-01-31T07:21:01.369Z,74.11
2023-01-31T07:25:57.848Z,74.19
2023-01-31T07:30:54.406Z,74.39
2023-01-31T07:35:52.443Z,74.24
2023-01-31T07:40:53.530Z,74.00
2023-01-31T07:45:50.636Z,74.12
2023-01-31T07:50:47.174Z,74.27
2023-01-31T07:55:47.673Z,74.17
2023-01-31T08:01:02.539Z,74.28
2023-01-31T08:06:12.357Z,74.43
2023-01-31T08:11:08.940Z,74.25
2023-01-31T08:21:40.576Z,74.39
2023-01-31T08:32:00.429Z,74.39
2023-01-31T08:37:13.538Z,74.02
2023-01-31T08:42:40.039Z,74.07
2023-01-31T08:47:37.230Z,74.13
2023-01-31T09:04:53.817Z,74.03
2023-01-31T09:10:58.151Z,73.94
2023-01-31T09:16:35.762Z,74.22
2023-01-31T09:28:35.222Z,74.02
2023-01-31T09:40:12.502Z,74.07
2023-01-31T09:46:52.198Z,74.13
2023-01-31T10:10:42.270Z,74.14
2023-01-31T10:16:56.902Z,74.44
2023-01-31T10:23:33.361Z,74.40
2023-01-31T10:40:55.624Z,75.18
2023-01-31T10:47:06.370Z,75.25
2023-01-31T10:52:43.916Z,75.20
2023-01-31T10:58:11.896Z,75.51
2023-01-31T11:09:49.769Z,75.71
2023-01-31T11:21:53.180Z,76.13
2023-01-31T11:27:45.286Z,76.32
2023-01-31T11:33:39.117Z,76.51
2023-01-31T12:41:24.455Z,78.76
2023-01-31T14:39:38.046Z,81.54
2023-01-31T14:44:55.227Z,81.72
2023-01-31T14:50:10.667Z,81.67
2023-01-31T14:55:28.657Z,81.85
2023-01-31T15:00:28.906Z,81.66
2023-01-31T15:05:31.180Z,81.37
2023-01-31T15:11:04.526Z,81.49
2023-01-31T15:16:15.859Z,81.64
2023-01-31T16:56:18.200Z,78.10
2023-01-31T21:02:43.822Z,75.65
2023-01-31T21:20:17.308Z,75.54
2023-01-31T21:57:35.611Z,75.42
2023-01-31T22:03:18.376Z,74.84
2023-01-31T22:15:12.812Z,74.32
2023-01-31T22:21:10.019Z,73.93
2023-01-31T22:32:30.881Z,73.88
2023-01-31T22:38:10.971Z,73.96
2023-01-31T23:06:09.521Z,73.29
2023-01-31T23:11:12.505Z,72.57
2023-01-31T23:34:12.084Z,72.11
2023-01-31T23:39:09.426Z,72.16
2023-01-31T23:44:15.566Z,72.39
2023-01-31T23:50:09.654Z,72.34
2023-01-31T23:55:07.112Z,72.13
